sensor_id;sensor_type;location;lat;lon;timestamp;P1;durP1;ratioP1;P2;durP2;ratioP2
65037;SDS011;51605;47.040;15.294;2022-08-07T00:00:29;0.60;;;0.60;;
65037;SDS011;51605;47.040;15.294;2022-08-07T00:02:55;0.65;;;0.65;;
65037;SDS011;51605;47.040;15.294;2022-08-07T00:05:21;0.60;;;0.60;;
65037;SDS011;51605;47.040;15.294;2022-08-07T00:07:47;0.50;;;0.50;;
65037;SDS011;51605;47.040;15.294;2022-08-07T00:10:13;0.60;;;0.60;;
65037;SDS011;51605;47.040;15.294;2022-08-07T00:12:39;0.47;;;0.47;;
65037;SDS011;51605;47.040;15.294;2022-08-07T00:15:05;0.53;;;0.53;;
65037;SDS011;51605;47.040;15.294;2022-08-07T00:17:31;0.70;;;0.70;;
65037;SDS011;51605;47.040;15.294;2022-08-07T00:19:57;0.43;;;0.43;;
65037;SDS011;51605;47.040;15.294;2022-08-07T00:22:22;0.40;;;0.40;;
65037;SDS011;51605;47.040;15.294;2022-08-07T00:24:48;0.53;;;0.53;;
65037;SDS011;51605;47.040;15.294;2022-08-07T00:27:14;0.50;;;0.50;;
65037;SDS011;51605;47.040;15.294;2022-08-07T00:29:39;0.60;;;0.60;;
65037;SDS011;51605;47.040;15.294;2022-08-07T00:32:05;0.40;;;0.40;;
65037;SDS011;51605;47.040;15.294;2022-08-07T00:34:31;0.50;;;0.50;;
65037;SDS011;51605;47.040;15.294;2022-08-07T00:36:57;0.60;;;0.60;;
65037;SDS011;51605;47.040;15.294;2022-08-07T00:39:22;0.60;;;0.60;;
65037;SDS011;51605;47.040;15.294;2022-08-07T00:41:52;0.60;;;0.60;;
65037;SDS011;51605;47.040;15.294;2022-08-07T00:44:21;0.52;;;0.52;;
65037;SDS011;51605;47.040;15.294;2022-08-07T00:46:47;0.40;;;0.40;;
65037;SDS011;51605;47.040;15.294;2022-08-07T00:49:12;0.50;;;0.50;;
65037;SDS011;51605;47.040;15.294;2022-08-07T00:51:38;0.60;;;0.60;;
65037;SDS011;51605;47.040;15.294;2022-08-07T00:54:04;0.52;;;0.52;;
65037;SDS011;51605;47.040;15.294;2022-08-07T00:56:30;0.57;;;0.57;;
65037;SDS011;51605;47.040;15.294;2022-08-07T00:58:56;0.63;;;0.63;;
65037;SDS011;51605;47.040;15.294;2022-08-07T01:01:22;0.70;;;0.70;;
65037;SDS011;51605;47.040;15.294;2022-08-07T01:03:49;0.50;;;0.50;;
65037;SDS011;51605;47.040;15.294;2022-08-07T01:06:16;0.40;;;0.40;;
65037;SDS011;51605;47.040;15.294;2022-08-07T01:08:43;0.60;;;0.60;;
65037;SDS011;51605;47.040;15.294;2022-08-07T01:11:10;0.60;;;0.60;;
65037;SDS011;51605;47.040;15.294;2022-08-07T01:13:36;0.50;;;0.50;;
65037;SDS011;51605;47.040;15.294;2022-08-07T01:16:03;1.27;;;0.45;;
65037;SDS011;51605;47.040;15.294;2022-08-07T01:18:30;0.55;;;0.55;;
65037;SDS011;51605;47.040;15.294;2022-08-07T01:21:15;0.55;;;0.55;;
65037;SDS011;51605;47.040;15.294;2022-08-07T01:23:43;0.50;;;0.50;;
65037;SDS011;51605;47.040;15.294;2022-08-07T01:26:11;0.50;;;0.50;;
65037;SDS011;51605;47.040;15.294;2022-08-07T01:28:42;0.70;;;0.70;;
65037;SDS011;51605;47.040;15.294;2022-08-07T01:31:09;0.50;;;0.50;;
65037;SDS011;51605;47.040;15.294;2022-08-07T01:33:35;0.50;;;0.50;;
65037;SDS011;51605;47.040;15.294;2022-08-07T01:36:02;0.50;;;0.50;;
65037;SDS011;51605;47.040;15.294;2022-08-07T01:38:28;0.52;;;0.52;;
65037;SDS011;51605;47.040;15.294;2022-08-07T01:40:56;0.50;;;0.50;;
65037;SDS011;51605;47.040;15.294;2022-08-07T01:43:23;0.50;;;0.50;;
65037;SDS011;51605;47.040;15.294;2022-08-07T01:48:16;0.60;;;0.60;;
65037;SDS011;51605;47.040;15.294;2022-08-07T01:50:44;0.55;;;0.55;;
65037;SDS011;51605;47.040;15.294;2022-08-07T01:53:14;0.60;;;0.60;;
65037;SDS011;51605;47.040;15.294;2022-08-07T01:55:46;0.50;;;0.50;;
65037;SDS011;51605;47.040;15.294;2022-08-07T01:58:18;0.60;;;0.60;;
65037;SDS011;51605;47.040;15.294;2022-08-07T02:00:48;0.50;;;0.50;;
65037;SDS011;51605;47.040;15.294;2022-08-07T02:03:17;0.68;;;0.68;;
65037;SDS011;51605;47.040;15.294;2022-08-07T02:05:56;0.60;;;0.60;;
65037;SDS011;51605;47.040;15.294;2022-08-07T02:08:26;0.50;;;0.50;;
65037;SDS011;51605;47.040;15.294;2022-08-07T02:10:54;0.65;;;0.65;;
65037;SDS011;51605;47.040;15.294;2022-08-07T02:13:23;0.60;;;0.60;;
65037;SDS011;51605;47.040;15.294;2022-08-07T02:15:52;0.70;;;0.70;;
65037;SDS011;51605;47.040;15.294;2022-08-07T02:18:20;0.68;;;0.50;;
65037;SDS011;51605;47.040;15.294;2022-08-07T02:20:48;0.52;;;0.52;;
65037;SDS011;51605;47.040;15.294;2022-08-07T02:23:16;0.70;;;0.70;;
65037;SDS011;51605;47.040;15.294;2022-08-07T02:28:09;0.52;;;0.52;;
65037;SDS011;51605;47.040;15.294;2022-08-07T02:30:37;0.70;;;0.60;;
65037;SDS011;51605;47.040;15.294;2022-08-07T02:33:04;0.50;;;0.50;;
65037;SDS011;51605;47.040;15.294;2022-08-07T02:35:31;0.35;;;0.35;;
65037;SDS011;51605;47.040;15.294;2022-08-07T02:37:59;0.80;;;0.63;;
65037;SDS011;51605;47.040;15.294;2022-08-07T02:40:27;0.73;;;0.60;;
65037;SDS011;51605;47.040;15.294;2022-08-07T02:42:55;0.70;;;0.70;;
65037;SDS011;51605;47.040;15.294;2022-08-07T02:45:22;0.73;;;0.70;;
65037;SDS011;51605;47.040;15.294;2022-08-07T02:47:50;0.63;;;0.63;;
65037;SDS011;51605;47.040;15.294;2022-08-07T02:50:16;0.50;;;0.50;;
65037;SDS011;51605;47.040;15.294;2022-08-07T02:55:18;0.80;;;0.63;;
65037;SDS011;51605;47.040;15.294;2022-08-07T02:57:50;0.70;;;0.70;;
65037;SDS011;51605;47.040;15.294;2022-08-07T03:00:17;0.60;;;0.60;;
65037;SDS011;51605;47.040;15.294;2022-08-07T03:02:44;0.65;;;0.65;;
65037;SDS011;51605;47.040;15.294;2022-08-07T03:05:11;0.60;;;0.60;;
65037;SDS011;51605;47.040;15.294;2022-08-07T03:07:38;0.73;;;0.65;;
65037;SDS011;51605;47.040;15.294;2022-08-07T03:12:31;0.60;;;0.60;;
65037;SDS011;51605;47.040;15.294;2022-08-07T03:14:59;0.68;;;0.68;;
65037;SDS011;51605;47.040;15.294;2022-08-07T03:17:25;0.60;;;0.60;;
65037;SDS011;51605;47.040;15.294;2022-08-07T03:19:52;0.45;;;0.40;;
65037;SDS011;51605;47.040;15.294;2022-08-07T03:22:18;0.60;;;0.60;;
65037;SDS011;51605;47.040;15.294;2022-08-07T03:24:45;0.60;;;0.60;;
65037;SDS011;51605;47.040;15.294;2022-08-07T03:27:11;0.70;;;0.70;;
65037;SDS011;51605;47.040;15.294;2022-08-07T03:29:39;0.70;;;0.70;;
65037;SDS011;51605;47.040;15.294;2022-08-07T03:32:11;0.68;;;0.68;;
65037;SDS011;51605;47.040;15.294;2022-08-07T03:37:05;0.50;;;0.50;;
65037;SDS011;51605;47.040;15.294;2022-08-07T03:39:33;1.23;;;0.80;;
65037;SDS011;51605;47.040;15.294;2022-08-07T03:42:01;0.60;;;0.60;;
65037;SDS011;51605;47.040;15.294;2022-08-07T03:44:28;0.50;;;0.50;;
65037;SDS011;51605;47.040;15.294;2022-08-07T03:49:21;0.60;;;0.60;;
65037;SDS011;51605;47.040;15.294;2022-08-07T03:51:47;0.60;;;0.60;;
65037;SDS011;51605;47.040;15.294;2022-08-07T03:56:40;0.50;;;0.50;;
65037;SDS011;51605;47.040;15.294;2022-08-07T04:01:36;0.60;;;0.60;;
65037;SDS011;51605;47.040;15.294;2022-08-07T04:04:07;0.60;;;0.60;;
65037;SDS011;51605;47.040;15.294;2022-08-07T04:06:35;0.70;;;0.70;;
65037;SDS011;51605;47.040;15.294;2022-08-07T04:09:02;0.60;;;0.60;;
65037;SDS011;51605;47.040;15.294;2022-08-07T04:11:28;0.70;;;0.70;;
65037;SDS011;51605;47.040;15.294;2022-08-07T04:13:55;0.65;;;0.65;;
65037;SDS011;51605;47.040;15.294;2022-08-07T04:16:22;0.60;;;0.60;;
65037;SDS011;51605;47.040;15.294;2022-08-07T04:18:48;0.63;;;0.63;;
65037;SDS011;51605;47.040;15.294;2022-08-07T04:21:14;0.60;;;0.60;;
65037;SDS011;51605;47.040;15.294;2022-08-07T04:23:40;0.70;;;0.70;;
65037;SDS011;51605;47.040;15.294;2022-08-07T04:26:07;0.50;;;0.50;;
65037;SDS011;51605;47.040;15.294;2022-08-07T04:28:32;0.90;;;0.70;;
65037;SDS011;51605;47.040;15.294;2022-08-07T04:30:58;0.50;;;0.50;;
65037;SDS011;51605;47.040;15.294;2022-08-07T04:33:24;0.60;;;0.60;;
65037;SDS011;51605;47.040;15.294;2022-08-07T04:35:51;0.63;;;0.63;;
65037;SDS011;51605;47.040;15.294;2022-08-07T04:38:18;0.60;;;0.60;;
65037;SDS011;51605;47.040;15.294;2022-08-07T04:40:44;0.87;;;0.60;;
65037;SDS011;51605;47.040;15.294;2022-08-07T04:43:10;0.63;;;0.63;;
65037;SDS011;51605;47.040;15.294;2022-08-07T04:48:38;0.75;;;0.70;;
65037;SDS011;51605;47.040;15.294;2022-08-07T04:56:46;0.63;;;0.63;;
65037;SDS011;51605;47.040;15.294;2022-08-07T04:59:18;0.60;;;0.60;;
65037;SDS011;51605;47.040;15.294;2022-08-07T05:04:30;0.60;;;0.60;;
65037;SDS011;51605;47.040;15.294;2022-08-07T05:10:02;0.70;;;0.70;;
65037;SDS011;51605;47.040;15.294;2022-08-07T05:15:15;0.68;;;0.68;;
65037;SDS011;51605;47.040;15.294;2022-08-07T05:17:46;0.60;;;0.60;;
65037;SDS011;51605;47.040;15.294;2022-08-07T05:20:16;0.70;;;0.70;;
65037;SDS011;51605;47.040;15.294;2022-08-07T05:22:49;0.65;;;0.60;;
65037;SDS011;51605;47.040;15.294;2022-08-07T05:25:19;1.23;;;0.70;;
65037;SDS011;51605;47.040;15.294;2022-08-07T05:27:47;0.60;;;0.60;;
65037;SDS011;51605;47.040;15.294;2022-08-07T05:30:15;1.02;;;0.60;;
65037;SDS011;51605;47.040;15.294;2022-08-07T05:32:42;0.60;;;0.60;;
65037;SDS011;51605;47.040;15.294;2022-08-07T05:35:13;0.70;;;0.70;;
65037;SDS011;51605;47.040;15.294;2022-08-07T05:37:39;0.60;;;0.60;;
65037;SDS011;51605;47.040;15.294;2022-08-07T05:40:06;0.50;;;0.50;;
65037;SDS011;51605;47.040;15.294;2022-08-07T05:42:34;0.60;;;0.60;;
65037;SDS011;51605;47.040;15.294;2022-08-07T05:44:59;0.70;;;0.70;;
65037;SDS011;51605;47.040;15.294;2022-08-07T05:47:26;0.60;;;0.60;;
65037;SDS011;51605;47.040;15.294;2022-08-07T05:49:52;1.10;;;0.70;;
65037;SDS011;51605;47.040;15.294;2022-08-07T05:52:19;0.60;;;0.60;;
65037;SDS011;51605;47.040;15.294;2022-08-07T05:54:45;0.63;;;0.63;;
65037;SDS011;51605;47.040;15.294;2022-08-07T05:57:11;0.60;;;0.60;;
65037;SDS011;51605;47.040;15.294;2022-08-07T05:59:39;0.68;;;0.68;;
65037;SDS011;51605;47.040;15.294;2022-08-07T06:02:06;0.60;;;0.60;;
65037;SDS011;51605;47.040;15.294;2022-08-07T06:04:35;0.88;;;0.73;;
65037;SDS011;51605;47.040;15.294;2022-08-07T06:07:05;0.77;;;0.77;;
65037;SDS011;51605;47.040;15.294;2022-08-07T06:09:32;0.60;;;0.60;;
65037;SDS011;51605;47.040;15.294;2022-08-07T06:11:59;0.60;;;0.60;;
65037;SDS011;51605;47.040;15.294;2022-08-07T06:14:25;0.70;;;0.70;;
65037;SDS011;51605;47.040;15.294;2022-08-07T06:16:50;0.73;;;0.73;;
65037;SDS011;51605;47.040;15.294;2022-08-07T06:19:19;0.50;;;0.50;;
65037;SDS011;51605;47.040;15.294;2022-08-07T06:21:45;0.70;;;0.70;;
65037;SDS011;51605;47.040;15.294;2022-08-07T06:24:12;0.60;;;0.60;;
65037;SDS011;51605;47.040;15.294;2022-08-07T06:26:40;0.60;;;0.60;;
65037;SDS011;51605;47.040;15.294;2022-08-07T06:29:07;0.70;;;0.70;;
65037;SDS011;51605;47.040;15.294;2022-08-07T06:31:33;0.60;;;0.60;;
65037;SDS011;51605;47.040;15.294;2022-08-07T06:33:59;0.60;;;0.60;;
65037;SDS011;51605;47.040;15.294;2022-08-07T06:36:25;0.97;;;0.67;;
65037;SDS011;51605;47.040;15.294;2022-08-07T06:38:51;0.60;;;0.60;;
65037;SDS011;51605;47.040;15.294;2022-08-07T06:41:32;0.50;;;0.50;;
65037;SDS011;51605;47.040;15.294;2022-08-07T06:44:04;0.70;;;0.70;;
65037;SDS011;51605;47.040;15.294;2022-08-07T06:46:32;0.65;;;0.65;;
65037;SDS011;51605;47.040;15.294;2022-08-07T06:48:58;0.88;;;0.70;;
65037;SDS011;51605;47.040;15.294;2022-08-07T06:51:25;0.60;;;0.60;;
65037;SDS011;51605;47.040;15.294;2022-08-07T06:53:53;0.70;;;0.70;;
65037;SDS011;51605;47.040;15.294;2022-08-07T06:56:24;1.20;;;0.70;;
65037;SDS011;51605;47.040;15.294;2022-08-07T06:59:11;0.77;;;0.77;;
65037;SDS011;51605;47.040;15.294;2022-08-07T07:01:40;3.28;;;0.70;;
65037;SDS011;51605;47.040;15.294;2022-08-07T07:04:06;0.60;;;0.60;;
65037;SDS011;51605;47.040;15.294;2022-08-07T07:06:33;0.57;;;0.57;;
65037;SDS011;51605;47.040;15.294;2022-08-07T07:11:41;0.60;;;0.60;;
65037;SDS011;51605;47.040;15.294;2022-08-07T07:14:12;0.70;;;0.70;;
65037;SDS011;51605;47.040;15.294;2022-08-07T07:16:42;0.70;;;0.70;;
65037;SDS011;51605;47.040;15.294;2022-08-07T07:19:09;0.70;;;0.68;;
65037;SDS011;51605;47.040;15.294;2022-08-07T07:21:39;1.52;;;0.70;;
65037;SDS011;51605;47.040;15.294;2022-08-07T07:24:06;0.60;;;0.60;;
65037;SDS011;51605;47.040;15.294;2022-08-07T07:26:34;1.08;;;0.90;;
65037;SDS011;51605;47.040;15.294;2022-08-07T07:29:04;0.60;;;0.60;;
65037;SDS011;51605;47.040;15.294;2022-08-07T07:31:45;0.85;;;0.73;;
65037;SDS011;51605;47.040;15.294;2022-08-07T07:34:27;0.60;;;0.60;;
65037;SDS011;51605;47.040;15.294;2022-08-07T07:36:56;0.60;;;0.60;;
65037;SDS011;51605;47.040;15.294;2022-08-07T07:39:24;2.00;;;0.60;;
65037;SDS011;51605;47.040;15.294;2022-08-07T07:41:51;0.60;;;0.60;;
65037;SDS011;51605;47.040;15.294;2022-08-07T07:44:18;0.70;;;0.70;;
65037;SDS011;51605;47.040;15.294;2022-08-07T07:46:45;1.05;;;0.70;;
65037;SDS011;51605;47.040;15.294;2022-08-07T07:49:14;1.50;;;0.70;;
65037;SDS011;51605;47.040;15.294;2022-08-07T07:51:42;0.70;;;0.70;;
65037;SDS011;51605;47.040;15.294;2022-08-07T07:54:09;0.70;;;0.70;;
65037;SDS011;51605;47.040;15.294;2022-08-07T07:56:38;0.80;;;0.73;;
65037;SDS011;51605;47.040;15.294;2022-08-07T07:59:05;0.60;;;0.60;;
65037;SDS011;51605;47.040;15.294;2022-08-07T08:01:33;1.15;;;0.90;;
65037;SDS011;51605;47.040;15.294;2022-08-07T08:04:04;0.75;;;0.75;;
65037;SDS011;51605;47.040;15.294;2022-08-07T08:06:32;0.80;;;0.77;;
65037;SDS011;51605;47.040;15.294;2022-08-07T08:11:26;0.82;;;0.70;;
65037;SDS011;51605;47.040;15.294;2022-08-07T08:13:52;0.85;;;0.82;;
65037;SDS011;51605;47.040;15.294;2022-08-07T08:16:18;1.23;;;0.90;;
65037;SDS011;51605;47.040;15.294;2022-08-07T08:18:46;0.82;;;0.70;;
65037;SDS011;51605;47.040;15.294;2022-08-07T08:21:14;1.05;;;0.80;;
65037;SDS011;51605;47.040;15.294;2022-08-07T08:24:01;1.00;;;0.90;;
65037;SDS011;51605;47.040;15.294;2022-08-07T08:26:48;0.95;;;0.90;;
65037;SDS011;51605;47.040;15.294;2022-08-07T08:29:28;1.67;;;0.90;;
65037;SDS011;51605;47.040;15.294;2022-08-07T08:32:01;0.77;;;0.77;;
65037;SDS011;51605;47.040;15.294;2022-08-07T08:34:30;3.05;;;1.00;;
65037;SDS011;51605;47.040;15.294;2022-08-07T08:36:57;1.30;;;0.80;;
65037;SDS011;51605;47.040;15.294;2022-08-07T08:39:26;1.48;;;0.90;;
65037;SDS011;51605;47.040;15.294;2022-08-07T08:41:58;0.88;;;0.80;;
65037;SDS011;51605;47.040;15.294;2022-08-07T08:50:07;2.08;;;1.00;;
65037;SDS011;51605;47.040;15.294;2022-08-07T08:52:50;1.73;;;1.10;;
65037;SDS011;51605;47.040;15.294;2022-08-07T08:55:32;2.05;;;1.30;;
65037;SDS011;51605;47.040;15.294;2022-08-07T08:58:09;2.53;;;1.20;;
65037;SDS011;51605;47.040;15.294;2022-08-07T09:00:43;1.67;;;1.17;;
65037;SDS011;51605;47.040;15.294;2022-08-07T09:19:48;0.93;;;0.90;;
65037;SDS011;51605;47.040;15.294;2022-08-07T09:22:56;3.13;;;1.00;;
65037;SDS011;51605;47.040;15.294;2022-08-07T09:28:15;1.45;;;0.95;;
65037;SDS011;51605;47.040;15.294;2022-08-07T09:31:09;1.27;;;0.90;;
65037;SDS011;51605;47.040;15.294;2022-08-07T09:36:35;1.02;;;0.85;;
65037;SDS011;51605;47.040;15.294;2022-08-07T09:51:04;1.10;;;0.90;;
65037;SDS011;51605;47.040;15.294;2022-08-07T09:53:44;2.03;;;1.00;;
65037;SDS011;51605;47.040;15.294;2022-08-07T10:26:32;1.83;;;1.10;;
65037;SDS011;51605;47.040;15.294;2022-08-07T10:34:52;1.75;;;1.02;;
65037;SDS011;51605;47.040;15.294;2022-08-07T10:37:25;2.28;;;1.00;;
65037;SDS011;51605;47.040;15.294;2022-08-07T10:40:11;2.20;;;1.10;;
65037;SDS011;51605;47.040;15.294;2022-08-07T10:45:48;1.67;;;1.00;;
65037;SDS011;51605;47.040;15.294;2022-08-07T10:48:25;2.05;;;1.10;;
65037;SDS011;51605;47.040;15.294;2022-08-07T10:59:05;2.15;;;1.10;;
65037;SDS011;51605;47.040;15.294;2022-08-07T11:07:09;1.88;;;1.00;;
65037;SDS011;51605;47.040;15.294;2022-08-07T11:10:19;1.73;;;1.05;;
65037;SDS011;51605;47.040;15.294;2022-08-07T11:15:33;1.95;;;1.00;;
65037;SDS011;51605;47.040;15.294;2022-08-07T11:23:24;1.85;;;1.20;;
65037;SDS011;51605;47.040;15.294;2022-08-07T11:25:57;0.95;;;0.85;;
65037;SDS011;51605;47.040;15.294;2022-08-07T11:28:33;1.67;;;1.10;;
65037;SDS011;51605;47.040;15.294;2022-08-07T11:31:07;1.40;;;1.10;;
65037;SDS011;51605;47.040;15.294;2022-08-07T11:36:42;2.72;;;1.17;;
65037;SDS011;51605;47.040;15.294;2022-08-07T11:49:53;1.08;;;0.90;;
65037;SDS011;51605;47.040;15.294;2022-08-07T11:52:26;1.17;;;1.00;;
65037;SDS011;51605;47.040;15.294;2022-08-07T11:55:30;1.10;;;0.90;;
65037;SDS011;51605;47.040;15.294;2022-08-07T11:58:39;1.65;;;1.10;;
65037;SDS011;51605;47.040;15.294;2022-08-07T12:07:25;1.33;;;0.95;;
65037;SDS011;51605;47.040;15.294;2022-08-07T12:09:58;1.40;;;0.93;;
65037;SDS011;51605;47.040;15.294;2022-08-07T12:12:36;1.58;;;0.90;;
65037;SDS011;51605;47.040;15.294;2022-08-07T12:15:21;1.10;;;0.77;;
65037;SDS011;51605;47.040;15.294;2022-08-07T12:17:55;0.80;;;0.80;;
65037;SDS011;51605;47.040;15.294;2022-08-07T12:20:47;1.77;;;0.95;;
65037;SDS011;51605;47.040;15.294;2022-08-07T12:26:11;1.15;;;0.80;;
65037;SDS011;51605;47.040;15.294;2022-08-07T12:31:56;1.93;;;1.30;;
65037;SDS011;51605;47.040;15.294;2022-08-07T12:34:32;0.90;;;0.80;;
65037;SDS011;51605;47.040;15.294;2022-08-07T12:37:02;0.88;;;0.85;;
65037;SDS011;51605;47.040;15.294;2022-08-07T12:39:31;0.98;;;0.70;;
65037;SDS011;51605;47.040;15.294;2022-08-07T12:41:59;1.00;;;0.90;;
65037;SDS011;51605;47.040;15.294;2022-08-07T12:44:25;1.40;;;0.93;;
65037;SDS011;51605;47.040;15.294;2022-08-07T12:55:07;1.13;;;0.88;;
65037;SDS011;51605;47.040;15.294;2022-08-07T12:57:53;1.00;;;0.90;;
65037;SDS011;51605;47.040;15.294;2022-08-07T13:00:26;1.10;;;0.80;;
65037;SDS011;51605;47.040;15.294;2022-08-07T13:05:52;0.77;;;0.70;;
65037;SDS011;51605;47.040;15.294;2022-08-07T13:08:34;1.13;;;0.90;;
65037;SDS011;51605;47.040;15.294;2022-08-07T13:17:16;0.80;;;0.80;;
65037;SDS011;51605;47.040;15.294;2022-08-07T13:20:01;0.95;;;0.90;;
65037;SDS011;51605;47.040;15.294;2022-08-07T13:22:46;0.93;;;0.80;;
65037;SDS011;51605;47.040;15.294;2022-08-07T13:28:15;1.27;;;0.82;;
65037;SDS011;51605;47.040;15.294;2022-08-07T13:30:56;1.75;;;1.30;;
65037;SDS011;51605;47.040;15.294;2022-08-07T13:33:30;0.80;;;0.80;;
65037;SDS011;51605;47.040;15.294;2022-08-07T13:36:04;1.00;;;0.80;;
65037;SDS011;51605;47.040;15.294;2022-08-07T13:41:34;0.70;;;0.70;;
65037;SDS011;51605;47.040;15.294;2022-08-07T13:44:06;0.70;;;0.70;;
65037;SDS011;51605;47.040;15.294;2022-08-07T13:46:35;0.70;;;0.70;;
65037;SDS011;51605;47.040;15.294;2022-08-07T13:49:04;0.95;;;0.70;;
65037;SDS011;51605;47.040;15.294;2022-08-07T13:51:32;1.63;;;0.90;;
65037;SDS011;51605;47.040;15.294;2022-08-07T13:54:01;0.85;;;0.70;;
65037;SDS011;51605;47.040;15.294;2022-08-07T13:56:31;0.80;;;0.80;;
65037;SDS011;51605;47.040;15.294;2022-08-07T13:58:58;1.10;;;0.70;;
65037;SDS011;51605;47.040;15.294;2022-08-07T14:01:27;1.05;;;0.80;;
65037;SDS011;51605;47.040;15.294;2022-08-07T14:03:57;0.88;;;0.70;;
65037;SDS011;51605;47.040;15.294;2022-08-07T14:06:31;0.98;;;0.80;;
65037;SDS011;51605;47.040;15.294;2022-08-07T14:08:59;0.85;;;0.85;;
65037;SDS011;51605;47.040;15.294;2022-08-07T14:11:28;0.98;;;0.80;;
65037;SDS011;51605;47.040;15.294;2022-08-07T14:13:56;0.60;;;0.52;;
65037;SDS011;51605;47.040;15.294;2022-08-07T14:16:31;1.00;;;0.70;;
65037;SDS011;51605;47.040;15.294;2022-08-07T14:19:02;1.02;;;0.80;;
65037;SDS011;51605;47.040;15.294;2022-08-07T14:21:38;0.82;;;0.80;;
65037;SDS011;51605;47.040;15.294;2022-08-07T14:24:08;0.98;;;0.80;;
65037;SDS011;51605;47.040;15.294;2022-08-07T14:26:56;0.90;;;0.70;;
65037;SDS011;51605;47.040;15.294;2022-08-07T14:29:26;0.60;;;0.60;;
65037;SDS011;51605;47.040;15.294;2022-08-07T14:31:57;0.68;;;0.68;;
65037;SDS011;51605;47.040;15.294;2022-08-07T14:34:26;0.70;;;0.70;;
65037;SDS011;51605;47.040;15.294;2022-08-07T14:36:54;0.63;;;0.63;;
65037;SDS011;51605;47.040;15.294;2022-08-07T14:39:20;0.63;;;0.60;;
65037;SDS011;51605;47.040;15.294;2022-08-07T14:41:48;0.85;;;0.70;;
65037;SDS011;51605;47.040;15.294;2022-08-07T14:46:42;0.95;;;0.70;;
65037;SDS011;51605;47.040;15.294;2022-08-07T14:49:08;0.70;;;0.70;;
65037;SDS011;51605;47.040;15.294;2022-08-07T14:51:36;0.60;;;0.60;;
65037;SDS011;51605;47.040;15.294;2022-08-07T14:54:06;0.70;;;0.70;;
65037;SDS011;51605;47.040;15.294;2022-08-07T14:56:35;0.68;;;0.68;;
65037;SDS011;51605;47.040;15.294;2022-08-07T14:59:05;0.70;;;0.70;;
65037;SDS011;51605;47.040;15.294;2022-08-07T15:01:35;0.90;;;0.60;;
65037;SDS011;51605;47.040;15.294;2022-08-07T15:04:05;0.68;;;0.63;;
65037;SDS011;51605;47.040;15.294;2022-08-07T15:06:33;0.70;;;0.70;;
65037;SDS011;51605;47.040;15.294;2022-08-07T15:09:11;0.60;;;0.60;;
65037;SDS011;51605;47.040;15.294;2022-08-07T15:11:40;1.20;;;1.00;;
65037;SDS011;51605;47.040;15.294;2022-08-07T15:14:20;1.30;;;0.70;;
65037;SDS011;51605;47.040;15.294;2022-08-07T15:16:51;0.60;;;0.60;;
65037;SDS011;51605;47.040;15.294;2022-08-07T15:19:22;0.70;;;0.70;;
65037;SDS011;51605;47.040;15.294;2022-08-07T15:21:55;0.95;;;0.70;;
65037;SDS011;51605;47.040;15.294;2022-08-07T15:24:38;1.02;;;0.73;;
65037;SDS011;51605;47.040;15.294;2022-08-07T15:27:19;0.60;;;0.60;;
65037;SDS011;51605;47.040;15.294;2022-08-07T15:29:49;0.60;;;0.60;;
65037;SDS011;51605;47.040;15.294;2022-08-07T15:32:17;0.50;;;0.50;;
65037;SDS011;51605;47.040;15.294;2022-08-07T15:34:48;0.60;;;0.60;;
65037;SDS011;51605;47.040;15.294;2022-08-07T15:37:17;0.90;;;0.82;;
65037;SDS011;51605;47.040;15.294;2022-08-07T15:39:50;0.88;;;0.70;;
65037;SDS011;51605;47.040;15.294;2022-08-07T15:45:07;0.60;;;0.60;;
65037;SDS011;51605;47.040;15.294;2022-08-07T15:47:42;0.60;;;0.60;;
65037;SDS011;51605;47.040;15.294;2022-08-07T15:50:12;0.60;;;0.60;;
65037;SDS011;51605;47.040;15.294;2022-08-07T15:52:41;0.73;;;0.60;;
65037;SDS011;51605;47.040;15.294;2022-08-07T15:55:09;0.60;;;0.60;;
65037;SDS011;51605;47.040;15.294;2022-08-07T15:57:38;0.60;;;0.60;;
65037;SDS011;51605;47.040;15.294;2022-08-07T16:00:09;0.60;;;0.60;;
65037;SDS011;51605;47.040;15.294;2022-08-07T16:02:42;0.85;;;0.70;;
65037;SDS011;51605;47.040;15.294;2022-08-07T16:05:17;0.80;;;0.80;;
65037;SDS011;51605;47.040;15.294;2022-08-07T16:07:48;0.70;;;0.70;;
65037;SDS011;51605;47.040;15.294;2022-08-07T16:10:24;0.70;;;0.70;;
65037;SDS011;51605;47.040;15.294;2022-08-07T16:21:39;0.70;;;0.70;;
65037;SDS011;51605;47.040;15.294;2022-08-07T16:24:26;0.60;;;0.60;;
65037;SDS011;51605;47.040;15.294;2022-08-07T16:27:07;0.73;;;0.70;;
65037;SDS011;51605;47.040;15.294;2022-08-07T16:29:52;0.50;;;0.50;;
65037;SDS011;51605;47.040;15.294;2022-08-07T16:33:12;0.60;;;0.60;;
65037;SDS011;51605;47.040;15.294;2022-08-07T16:35:32;0.70;;;0.70;;
65037;SDS011;51605;47.040;15.294;2022-08-07T16:52:22;0.60;;;0.60;;
65037;SDS011;51605;47.040;15.294;2022-08-07T17:00:41;0.57;;;0.57;;
65037;SDS011;51605;47.040;15.294;2022-08-07T17:03:26;0.93;;;0.75;;
65037;SDS011;51605;47.040;15.294;2022-08-07T17:06:06;0.50;;;0.50;;
65037;SDS011;51605;47.040;15.294;2022-08-07T17:11:27;0.60;;;0.60;;
65037;SDS011;51605;47.040;15.294;2022-08-07T17:14:04;0.63;;;0.60;;
65037;SDS011;51605;47.040;15.294;2022-08-07T17:16:46;0.60;;;0.60;;
65037;SDS011;51605;47.040;15.294;2022-08-07T17:21:45;0.60;;;0.60;;
65037;SDS011;51605;47.040;15.294;2022-08-07T17:32:26;0.45;;;0.45;;
65037;SDS011;51605;47.040;15.294;2022-08-07T17:38:13;0.60;;;0.60;;
65037;SDS011;51605;47.040;15.294;2022-08-07T17:40:44;0.40;;;0.40;;
65037;SDS011;51605;47.040;15.294;2022-08-07T17:43:25;0.73;;;0.60;;
65037;SDS011;51605;47.040;15.294;2022-08-07T17:45:57;0.52;;;0.52;;
65037;SDS011;51605;47.040;15.294;2022-08-07T17:48:30;0.70;;;0.60;;
65037;SDS011;51605;47.040;15.294;2022-08-07T17:56:20;0.60;;;0.60;;
65037;SDS011;51605;47.040;15.294;2022-08-07T17:59:09;0.50;;;0.50;;
65037;SDS011;51605;47.040;15.294;2022-08-07T18:01:49;0.50;;;0.50;;
65037;SDS011;51605;47.040;15.294;2022-08-07T18:09:37;0.50;;;0.50;;
65037;SDS011;51605;47.040;15.294;2022-08-07T18:12:13;0.50;;;0.50;;
65037;SDS011;51605;47.040;15.294;2022-08-07T18:17:53;0.52;;;0.52;;
65037;SDS011;51605;47.040;15.294;2022-08-07T18:20:32;0.50;;;0.50;;
65037;SDS011;51605;47.040;15.294;2022-08-07T18:23:07;0.60;;;0.60;;
65037;SDS011;51605;47.040;15.294;2022-08-07T18:25:40;0.50;;;0.50;;
65037;SDS011;51605;47.040;15.294;2022-08-07T18:28:20;0.65;;;0.60;;
65037;SDS011;51605;47.040;15.294;2022-08-07T18:57:51;0.50;;;0.50;;
65037;SDS011;51605;47.040;15.294;2022-08-07T19:00:34;0.50;;;0.50;;
65037;SDS011;51605;47.040;15.294;2022-08-07T19:03:21;0.50;;;0.50;;
65037;SDS011;51605;47.040;15.294;2022-08-07T19:11:40;0.50;;;0.50;;
65037;SDS011;51605;47.040;15.294;2022-08-07T19:14:14;0.50;;;0.50;;
65037;SDS011;51605;47.040;15.294;2022-08-07T19:16:52;0.40;;;0.40;;
65037;SDS011;51605;47.040;15.294;2022-08-07T19:19:27;0.60;;;0.60;;
65037;SDS011;51605;47.040;15.294;2022-08-07T19:24:44;0.60;;;0.60;;
65037;SDS011;51605;47.040;15.294;2022-08-07T19:27:13;0.40;;;0.40;;
65037;SDS011;51605;47.040;15.294;2022-08-07T19:29:44;0.50;;;0.43;;
65037;SDS011;51605;47.040;15.294;2022-08-07T19:32:13;1.23;;;0.60;;
65037;SDS011;51605;47.040;15.294;2022-08-07T19:34:48;0.52;;;0.52;;
65037;SDS011;51605;47.040;15.294;2022-08-07T19:37:16;0.60;;;0.60;;
65037;SDS011;51605;47.040;15.294;2022-08-07T19:39:46;0.50;;;0.50;;
65037;SDS011;51605;47.040;15.294;2022-08-07T19:42:37;0.47;;;0.40;;
65037;SDS011;51605;47.040;15.294;2022-08-07T19:45:07;0.40;;;0.40;;
65037;SDS011;51605;47.040;15.294;2022-08-07T19:47:38;0.63;;;0.63;;